createdAt,value
2023-01-28T00:01:42.288Z,102018.66
2023-01-28T00:04:10.682Z,102029.72
2023-01-28T00:06:39.185Z,102023.50
2023-01-28T00:09:07.744Z,102022.88
2023-01-28T00:11:36.368Z,102020.72
2023-01-28T00:14:06.388Z,102013.19
2023-01-28T00:16:34.956Z,102009.13
2023-01-28T00:19:03.605Z,102016.84
2023-01-28T00:21:32.268Z,102008.91
2023-01-28T00:24:00.770Z,102007.13
2023-01-28T00:26:29.416Z,102010.72
2023-01-28T00:28:58.047Z,101999.28
2023-01-28T00:31:28.679Z,102008.16
2023-01-28T00:33:58.714Z,102007.59
2023-01-28T00:36:28.366Z,102005.78
2023-01-28T00:38:59.083Z,102003.75
2023-01-28T00:41:29.488Z,101997.94
2023-01-28T00:44:00.457Z,101992.47
2023-01-28T00:46:32.305Z,101995.09
2023-01-28T00:49:02.046Z,101993.19
2023-01-28T00:51:30.535Z,101997.47
2023-01-28T00:53:59.046Z,101995.75
2023-01-28T00:56:29.285Z,102005.31
2023-01-28T00:58:57.908Z,101993.97
2023-01-28T01:01:28.328Z,101990.56
2023-01-28T01:04:03.266Z,101987.13
2023-01-28T01:06:35.450Z,101989.03
2023-01-28T01:09:08.247Z,101996.16
2023-01-28T01:11:37.089Z,101988.97
2023-01-28T01:14:07.397Z,101988.38
2023-01-28T01:16:36.702Z,101990.81
2023-01-28T01:19:09.509Z,101982.75
2023-01-28T01:21:38.111Z,101987.84
2023-01-28T01:24:07.236Z,101990.81
2023-01-28T01:26:35.809Z,101980.00
2023-01-28T01:29:04.302Z,101972.78
2023-01-28T01:31:32.882Z,101979.28
2023-01-28T01:34:02.338Z,101979.75
2023-01-28T01:36:32.879Z,101977.97
2023-01-28T01:39:01.521Z,101976.97
2023-01-28T01:41:32.177Z,101967.22
2023-01-28T01:44:02.179Z,101963.78
2023-01-28T01:46:37.689Z,101957.59
2023-01-28T01:49:15.698Z,101963.72
2023-01-28T01:51:48.236Z,101963.06
2023-01-28T01:54:17.900Z,101962.13
2023-01-28T01:56:49.158Z,101970.97
2023-01-28T01:59:27.282Z,101962.25
2023-01-28T02:01:57.508Z,101966.16
2023-01-28T02:04:29.255Z,101963.31
2023-01-28T02:07:01.656Z,101962.47
2023-01-28T02:09:32.218Z,101969.59
2023-01-28T02:12:04.396Z,101966.94
2023-01-28T02:14:37.256Z,101963.50
2023-01-28T02:17:06.428Z,101960.63
2023-01-28T02:19:41.065Z,101961.38
2023-01-28T02:22:38.264Z,101959.50
2023-01-28T02:25:35.338Z,101949.25
2023-01-28T02:28:21.474Z,101944.00
2023-01-28T02:30:56.439Z,101951.75
2023-01-28T02:33:32.200Z,101951.06
2023-01-28T02:36:07.918Z,101955.47
2023-01-28T02:38:43.146Z,101954.56
2023-01-28T02:41:19.556Z,101951.03
2023-01-28T02:43:52.024Z,101950.03
2023-01-28T02:46:51.558Z,101951.72
2023-01-28T02:49:24.052Z,101951.94
2023-01-28T02:52:08.463Z,101938.75
2023-01-28T02:54:42.423Z,101935.22
2023-01-28T02:57:30.801Z,101934.22
2023-01-28T03:00:10.020Z,101936.09
2023-01-28T03:02:45.991Z,101939.69
2023-01-28T03:05:22.707Z,101936.13
2023-01-28T03:07:52.087Z,101936.19
2023-01-28T03:10:23.772Z,101938.16
2023-01-28T03:13:13.245Z,101936.31
2023-01-28T03:16:04.444Z,101939.00
2023-01-28T03:18:57.634Z,101937.22
2023-01-28T03:21:50.612Z,101935.50
2023-01-28T03:24:41.111Z,101934.53
2023-01-28T03:27:34.622Z,101935.47
2023-01-28T03:30:32.514Z,101942.50
2023-01-28T03:33:25.218Z,101938.19
2023-01-28T03:36:11.645Z,101938.16
2023-01-28T03:38:43.882Z,101950.44
2023-01-28T03:41:23.630Z,101959.22
2023-01-28T03:43:53.702Z,101953.09
2023-01-28T03:46:22.454Z,101960.03
2023-01-28T03:48:52.401Z,101951.31
2023-01-28T03:51:22.796Z,101950.22
2023-01-28T03:53:51.328Z,101957.28
2023-01-28T03:56:24.628Z,101952.06
2023-01-28T03:58:56.896Z,101939.94
2023-01-28T04:01:26.011Z,101952.97
2023-01-28T04:03:56.364Z,101955.75
2023-01-28T04:06:33.508Z,101953.16
2023-01-28T04:09:22.504Z,101940.09
2023-01-28T04:11:57.707Z,101937.41
2023-01-28T04:14:32.332Z,101933.97
2023-01-28T04:17:11.925Z,101935.94
2023-01-28T04:19:43.568Z,101933.22
2023-01-28T04:22:14.725Z,101935.13
2023-01-28T04:24:44.787Z,101937.81
2023-01-28T04:27:13.583Z,101931.59
2023-01-28T04:29:42.690Z,101929.00
2023-01-28T04:32:30.815Z,101920.25
2023-01-28T04:35:29.425Z,101914.06
2023-01-28T04:38:07.660Z,101909.59
2023-01-28T04:40:46.147Z,101915.72
2023-01-28T04:43:30.907Z,101911.25
2023-01-28T04:46:18.718Z,101913.78
2023-01-28T04:49:14.474Z,101916.69
2023-01-28T04:52:17.146Z,101915.03
2023-01-28T04:55:04.709Z,101907.88
2023-01-28T04:57:34.123Z,101910.47
2023-01-28T05:00:03.183Z,101904.31
2023-01-28T05:02:32.258Z,101906.09
2023-01-28T05:05:01.824Z,101907.88
2023-01-28T05:07:43.006Z,101899.06
2023-01-28T05:10:13.839Z,101892.06
2023-01-28T05:12:42.365Z,101894.63
2023-01-28T05:15:11.869Z,101891.94
2023-01-28T05:17:43.633Z,101897.28
2023-01-28T05:20:17.279Z,101897.28
2023-01-28T05:22:50.073Z,101892.06
2023-01-28T05:25:26.109Z,101889.38
2023-01-28T05:27:56.847Z,101896.47
2023-01-28T05:30:28.101Z,101889.41
2023-01-28T05:32:58.018Z,101889.44
2023-01-28T05:35:27.119Z,101888.53
2023-01-28T05:37:58.466Z,101889.41
2023-01-28T05:40:27.925Z,101895.63
2023-01-28T05:42:56.779Z,101890.38
2023-01-28T05:45:37.351Z,101896.53
2023-01-28T05:48:28.806Z,101898.38
2023-01-28T05:51:16.075Z,101895.84
2023-01-28T05:53:49.233Z,101886.25
2023-01-28T05:56:18.466Z,101888.88
2023-01-28T05:58:47.848Z,101887.09
2023-01-28T06:01:16.525Z,101882.50
2023-01-28T06:03:51.842Z,101885.97
2023-01-28T06:06:20.848Z,101877.31
2023-01-28T06:08:50.894Z,101875.59
2023-01-28T06:11:26.564Z,101878.19
2023-01-28T06:13:58.976Z,101873.84
2023-01-28T06:16:44.547Z,101871.13
2023-01-28T06:19:13.687Z,101873.72
2023-01-28T06:21:44.592Z,101868.44
2023-01-28T06:24:15.408Z,101865.63
2023-01-28T06:26:47.430Z,101865.56
2023-01-28T06:29:16.768Z,101862.97
2023-01-28T06:31:45.543Z,101862.25
2023-01-28T06:34:16.147Z,101862.13
2023-01-28T06:36:46.270Z,101862.06
2023-01-28T06:39:16.864Z,101857.66
2023-01-28T06:41:45.748Z,101865.66
2023-01-28T06:44:14.425Z,101861.41
2023-01-28T06:46:43.201Z,101873.84
2023-01-28T06:49:12.007Z,101870.28
2023-01-28T06:51:40.956Z,101873.72
2023-01-28T06:54:09.687Z,101864.22
2023-01-28T06:56:40.008Z,101862.38
2023-01-28T06:59:08.609Z,101868.50
2023-01-28T07:01:37.604Z,101865.88
2023-01-28T07:04:07.405Z,101868.44
2023-01-28T07:06:36.257Z,101862.22
2023-01-28T07:09:05.284Z,101865.84
2023-01-28T07:11:40.067Z,101868.44
2023-01-28T07:14:11.452Z,101861.38
2023-01-28T07:16:41.172Z,101854.53
2023-01-28T07:19:13.008Z,101855.34
2023-01-28T07:21:42.924Z,101857.06
2023-01-28T07:24:11.908Z,101858.03
2023-01-28T07:26:45.632Z,101852.88
2023-01-28T07:29:18.895Z,101851.97
2023-01-28T07:31:49.638Z,101852.00
2023-01-28T07:34:18.951Z,101851.97
2023-01-28T07:36:49.493Z,101856.44
2023-01-28T07:39:18.767Z,101852.06
2023-01-28T07:41:47.670Z,101853.75
2023-01-28T07:44:37.545Z,101853.69
2023-01-28T07:47:08.722Z,101852.81
2023-01-28T07:49:40.807Z,101847.50
2023-01-28T07:52:10.260Z,101845.91
2023-01-28T07:54:39.214Z,101844.06
2023-01-28T07:57:10.923Z,101839.66
2023-01-28T07:59:41.768Z,101837.88
2023-01-28T08:02:14.946Z,101836.97
2023-01-28T08:04:43.907Z,101837.06
2023-01-28T08:07:12.821Z,101841.66
2023-01-28T08:09:41.758Z,101830.22
2023-01-28T08:12:10.587Z,101832.69
2023-01-28T08:14:40.791Z,101840.59
2023-01-28T08:17:09.847Z,101843.16
2023-01-28T08:19:38.691Z,101839.53
2023-01-28T08:22:07.412Z,101833.28
2023-01-28T08:24:36.211Z,101838.59
2023-01-28T08:27:05.378Z,101837.69
2023-01-28T08:29:34.715Z,101833.28
2023-01-28T08:32:04.887Z,101834.22
2023-01-28T08:34:33.713Z,101833.41
2023-01-28T08:37:02.467Z,101824.66
2023-01-28T08:39:31.242Z,101814.97
2023-01-28T08:41:59.970Z,101814.91
2023-01-28T08:44:35.468Z,101800.84
2023-01-28T08:47:06.131Z,101806.19
2023-01-28T08:49:35.225Z,101808.72
2023-01-28T08:52:03.950Z,101805.25
2023-01-28T08:54:37.295Z,101795.50
2023-01-28T08:57:06.311Z,101797.19
2023-01-28T08:59:35.551Z,101788.41
2023-01-28T09:02:05.912Z,101793.59
2023-01-28T09:04:34.831Z,101783.78
2023-01-28T09:07:03.682Z,101779.34
2023-01-28T09:09:32.435Z,101777.72
2023-01-28T09:12:01.332Z,101778.63
2023-01-28T09:14:30.128Z,101771.63
2023-01-28T09:16:58.653Z,101774.13
2023-01-28T09:19:29.600Z,101760.94
2023-01-28T09:21:58.158Z,101755.72
2023-01-28T09:24:26.897Z,101751.41
2023-01-28T09:26:55.496Z,101749.69
2023-01-28T09:29:24.077Z,101739.16
2023-01-28T09:31:52.670Z,101754.88
2023-01-28T09:34:21.151Z,101736.44
2023-01-28T09:36:51.158Z,101743.50
2023-01-28T09:39:19.751Z,101741.78
2023-01-28T09:41:59.271Z,101741.72
2023-01-28T09:44:43.379Z,101741.91
2023-01-28T09:47:22.227Z,101741.94
2023-01-28T09:49:54.283Z,101734.16
2023-01-28T09:52:27.029Z,101720.88
2023-01-28T09:55:01.070Z,101726.88
2023-01-28T09:57:38.781Z,101719.94
2023-01-28T10:00:15.878Z,101706.75
2023-01-28T10:03:00.615Z,101695.19
2023-01-28T10:05:40.733Z,101696.09
2023-01-28T10:08:29.989Z,101697.72
2023-01-28T10:11:05.826Z,101699.44
2023-01-28T10:13:47.425Z,101696.78
2023-01-28T10:16:27.940Z,101679.09
2023-01-28T10:18:59.925Z,101677.34
2023-01-28T10:21:32.628Z,101671.97
2023-01-28T10:24:08.270Z,101669.34
2023-01-28T10:26:40.347Z,101664.09
2023-01-28T10:29:15.382Z,101658.75
2023-01-28T10:31:53.704Z,101650.91
2023-01-28T10:34:26.333Z,101643.00
2023-01-28T10:36:57.274Z,101636.81
2023-01-28T10:39:29.906Z,101649.00
2023-01-28T10:41:59.053Z,101634.16
2023-01-28T10:44:39.248Z,101643.72
2023-01-28T10:47:14.935Z,101639.34
2023-01-28T10:49:48.127Z,101638.44
2023-01-28T10:52:19.400Z,101626.97
2023-01-28T10:54:49.302Z,101636.72
2023-01-28T10:57:20.551Z,101635.03
2023-01-28T10:59:50.826Z,101630.78
2023-01-28T11:02:28.737Z,101623.81
2023-01-28T11:05:08.681Z,101622.91
2023-01-28T11:07:37.276Z,101615.06
2023-01-28T11:10:27.295Z,101616.84
2023-01-28T11:12:59.996Z,101621.25
2023-01-28T11:15:28.835Z,101619.44
2023-01-28T11:18:02.416Z,101611.53
2023-01-28T11:20:36.222Z,101612.41
2023-01-28T11:23:05.132Z,101607.22
2023-01-28T11:25:36.831Z,101599.25
2023-01-28T11:28:09.611Z,101598.38
2023-01-28T11:30:40.608Z,101598.22
2023-01-28T11:33:16.096Z,101592.09
2023-01-28T11:35:53.691Z,101590.34
2023-01-28T11:38:24.619Z,101592.25
2023-01-28T11:40:56.143Z,101584.28
2023-01-28T11:43:27.076Z,101582.50
2023-01-28T11:46:06.305Z,101585.16
2023-01-28T11:48:43.503Z,101582.69
2023-01-28T11:51:30.653Z,101568.66
2023-01-28T11:54:14.874Z,101554.63
2023-01-28T11:57:01.220Z,101567.69
2023-01-28T11:59:52.499Z,101556.41
2023-01-28T12:02:27.753Z,101551.91
2023-01-28T12:05:13.353Z,101538.75
2023-01-28T12:07:46.953Z,101530.84
2023-01-28T12:10:23.660Z,101529.13
2023-01-28T12:13:13.251Z,101518.59
2023-01-28T12:16:17.847Z,101505.47
2023-01-28T12:19:20.790Z,101505.47
2023-01-28T12:22:11.883Z,101506.31
2023-01-28T12:25:00.071Z,101503.72
2023-01-28T12:27:45.730Z,101499.38
2023-01-28T12:30:26.104Z,101502.03
2023-01-28T12:33:17.624Z,101492.38
2023-01-28T12:36:02.759Z,101502.81
2023-01-28T12:38:44.081Z,101494.94
2023-01-28T12:41:16.501Z,101488.72
2023-01-28T12:43:54.188Z,101479.13
2023-01-28T12:46:42.106Z,101485.22
2023-01-28T12:49:18.967Z,101485.13
2023-01-28T12:52:00.307Z,101478.25
2023-01-28T12:54:35.324Z,101470.25
2023-01-28T12:57:04.979Z,101464.84
2023-01-28T12:59:39.665Z,101464.78
2023-01-28T13:02:23.704Z,101459.56
2023-01-28T13:04:55.862Z,101459.66
2023-01-28T13:07:29.299Z,101449.94
2023-01-28T13:10:05.027Z,101449.03
2023-01-28T13:12:34.529Z,101454.31
2023-01-28T13:15:04.159Z,101448.34
2023-01-28T13:17:34.370Z,101444.88
2023-01-28T13:20:14.856Z,101439.63
2023-01-28T13:22:46.654Z,101452.78
2023-01-28T13:25:23.356Z,101455.31
2023-01-28T13:28:00.792Z,101445.63
2023-01-28T13:30:31.791Z,101426.41
2023-01-28T13:33:04.364Z,101422.84
2023-01-28T13:35:36.829Z,101417.69
2023-01-28T13:38:10.741Z,101408.94
2023-01-28T13:40:42.019Z,101414.28
2023-01-28T13:43:28.380Z,101405.44
2023-01-28T13:45:58.713Z,101401.06
2023-01-28T13:48:34.844Z,101395.84
2023-01-28T13:51:05.632Z,101373.84
2023-01-28T13:53:43.271Z,101382.72
2023-01-28T13:56:22.991Z,101371.22
2023-01-28T13:59:37.191Z,101372.13
2023-01-28T14:02:39.945Z,101360.69
2023-01-28T14:05:36.681Z,101369.44
2023-01-28T14:08:38.157Z,101366.78
2023-01-28T14:11:36.053Z,101368.47
2023-01-28T14:14:43.601Z,101368.47
2023-01-28T14:17:21.279Z,101363.19
2023-01-28T14:19:52.278Z,101354.78
2023-01-28T14:22:22.903Z,101356.63
2023-01-28T14:24:51.961Z,101349.59
2023-01-28T14:27:26.329Z,101348.81
2023-01-28T14:30:09.901Z,101352.47
2023-01-28T14:32:38.618Z,101355.16
2023-01-28T14:35:09.986Z,101344.72
2023-01-28T14:37:40.104Z,101345.53
2023-01-28T14:40:14.835Z,101344.63
2023-01-28T14:42:46.597Z,101353.41
2023-01-28T14:45:43.177Z,101348.94
2023-01-28T14:48:27.616Z,101342.88
2023-01-28T14:51:39.850Z,101337.50
2023-01-28T14:54:38.163Z,101345.38
2023-01-28T14:57:27.269Z,101353.28
2023-01-28T14:59:58.407Z,101353.34
2023-01-28T15:02:27.288Z,101361.25
2023-01-28T15:04:56.493Z,101364.72
2023-01-28T15:07:27.207Z,101362.00
2023-01-28T15:10:05.113Z,101337.44
2023-01-28T15:12:37.192Z,101323.44
2023-01-28T15:15:13.879Z,101316.41
2023-01-28T15:17:42.601Z,101312.91
2023-01-28T15:20:18.086Z,101311.97
2023-01-28T15:22:47.112Z,101310.31
2023-01-28T15:25:21.343Z,101300.63
2023-01-28T15:27:52.100Z,101300.63
2023-01-28T15:30:24.142Z,101304.09
2023-01-28T15:33:00.845Z,101317.31
2023-01-28T15:35:29.740Z,101316.38
2023-01-28T15:37:58.540Z,101311.88
2023-01-28T15:40:30.878Z,101313.75
2023-01-28T15:42:59.536Z,101324.22
2023-01-28T15:45:29.799Z,101316.28
2023-01-28T15:48:09.149Z,101320.72
2023-01-28T15:50:38.536Z,101323.34
2023-01-28T15:53:11.376Z,101307.56
2023-01-28T15:55:44.698Z,101305.75
2023-01-28T15:58:21.885Z,101304.94
2023-01-28T16:00:50.982Z,101293.47
2023-01-28T16:03:23.624Z,101288.16
2023-01-28T16:06:04.161Z,101291.69
2023-01-28T16:08:39.618Z,101286.41
2023-01-28T16:11:11.274Z,101281.22
2023-01-28T16:13:44.918Z,101268.91
2023-01-28T16:16:14.109Z,101261.88
2023-01-28T16:18:47.674Z,101248.78
2023-01-28T16:21:24.269Z,101240.97
2023-01-28T16:23:54.271Z,101245.31
2023-01-28T16:26:27.090Z,101244.38
2023-01-28T16:28:55.665Z,101239.22
2023-01-28T16:31:24.251Z,101228.66
2023-01-28T16:33:52.764Z,101223.44
2023-01-28T16:36:23.086Z,101219.91
2023-01-28T16:38:51.683Z,101220.72
2023-01-28T16:41:26.942Z,101212.88
2023-01-28T16:43:55.563Z,101204.97
2023-01-28T16:46:27.849Z,101205.84
2023-01-28T16:48:56.325Z,101195.50
2023-01-28T16:51:24.772Z,101192.75
2023-01-28T16:53:53.864Z,101183.25
2023-01-28T16:59:18.116Z,101163.81
2023-01-28T17:01:48.882Z,101158.56
2023-01-28T17:04:17.665Z,101169.09
2023-01-28T17:06:46.676Z,101186.53
2023-01-28T17:09:15.965Z,101185.69
2023-01-28T17:11:44.461Z,101183.00
2023-01-28T17:14:13.140Z,101167.16
2023-01-28T17:16:43.135Z,101164.47
2023-01-28T17:19:11.963Z,101166.25
2023-01-28T17:21:40.526Z,101170.66
2023-01-28T17:24:09.626Z,101170.56
2023-01-28T17:26:38.409Z,101163.50
2023-01-28T17:29:08.494Z,101159.97
2023-01-28T17:31:37.573Z,101154.72
2023-01-28T17:34:11.525Z,101158.16
2023-01-28T17:36:40.232Z,101155.47
2023-01-28T17:39:08.881Z,101156.31
2023-01-28T17:41:37.556Z,101160.66
2023-01-28T17:44:06.673Z,101145.69
2023-01-28T17:46:35.303Z,101149.13
2023-01-28T17:49:04.095Z,101136.81
2023-01-28T17:51:34.197Z,101136.75
2023-01-28T17:54:03.105Z,101127.03
2023-01-28T17:56:31.995Z,101120.88
2023-01-28T17:59:04.071Z,101128.63
2023-01-28T18:01:37.344Z,101128.63
2023-01-28T18:04:06.168Z,101125.97
2023-01-28T18:06:37.217Z,101114.44
2023-01-28T18:09:05.912Z,101110.84
2023-01-28T18:11:34.392Z,101103.84
2023-01-28T18:14:03.730Z,101102.91
2023-01-28T18:16:32.255Z,101108.09
2023-01-28T18:19:00.780Z,101083.47
2023-01-28T18:21:50.509Z,101092.13
2023-01-28T18:24:24.116Z,101093.00
2023-01-28T18:26:55.506Z,101091.22
2023-01-28T18:29:24.411Z,101084.16
2023-01-28T18:31:54.565Z,101084.06
2023-01-28T18:34:24.494Z,101084.91
2023-01-28T18:36:53.095Z,101091.94
2023-01-28T18:39:23.458Z,101089.28
2023-01-28T18:41:55.258Z,101084.81
2023-01-28T18:44:24.644Z,101084.81
2023-01-28T18:46:53.650Z,101083.88
2023-01-28T18:49:22.364Z,101072.47
2023-01-28T18:51:51.004Z,101067.09
2023-01-28T18:54:20.614Z,101074.13
2023-01-28T18:56:50.860Z,101068.84
2023-01-28T18:59:19.483Z,101074.13
2023-01-28T19:01:48.186Z,101065.28
2023-01-28T19:04:17.054Z,101059.13
2023-01-28T19:06:45.595Z,101059.13
2023-01-28T19:09:16.161Z,101055.63
2023-01-28T19:11:44.946Z,101046.75
2023-01-28T19:14:16.633Z,101045.94
2023-01-28T19:16:45.805Z,101047.63
2023-01-28T19:19:14.514Z,101035.28
2023-01-28T19:21:43.393Z,101026.56
2023-01-28T19:24:14.957Z,101028.25
2023-01-28T19:26:45.323Z,101027.34
2023-01-28T19:29:16.303Z,101006.28
2023-01-28T19:31:49.168Z,101002.72
2023-01-28T19:34:17.918Z,100993.94
2023-01-28T19:36:46.977Z,100993.84
2023-01-28T19:39:15.955Z,101000.81
2023-01-28T19:41:44.827Z,100996.38
2023-01-28T19:44:14.839Z,100991.91
2023-01-28T19:46:43.318Z,100992.84
2023-01-28T19:49:12.867Z,100979.56
2023-01-28T19:51:41.623Z,100975.09
2023-01-28T19:54:10.197Z,100976.69
2023-01-28T19:56:38.891Z,100979.31
2023-01-28T19:59:07.638Z,100972.25
2023-01-28T20:01:37.578Z,100966.09
2023-01-28T20:04:06.327Z,100975.66
2023-01-28T20:06:36.419Z,100968.50
2023-01-28T20:09:09.216Z,100961.50
2023-01-28T20:11:37.820Z,100979.88
2023-01-28T20:14:06.294Z,100977.22
2023-01-28T20:16:37.415Z,100973.59
2023-01-28T20:19:07.758Z,100975.25
2023-01-28T20:21:37.261Z,100969.16
2023-01-28T20:24:06.813Z,100958.47
2023-01-28T20:26:37.646Z,100953.13
2023-01-28T20:29:08.140Z,100951.28
2023-01-28T20:31:39.515Z,100949.50
2023-01-28T20:34:08.978Z,100940.72
2023-01-28T20:36:37.414Z,100934.50
2023-01-28T20:39:05.855Z,100928.34
2023-01-28T20:41:34.363Z,100930.84
2023-01-28T20:44:02.965Z,100929.03
2023-01-28T20:46:33.183Z,100935.22
2023-01-28T20:49:06.758Z,100922.84
2023-01-28T20:51:36.566Z,100912.28
2023-01-28T20:54:05.567Z,100906.09
2023-01-28T20:56:34.361Z,100911.31
2023-01-28T20:59:04.410Z,100906.97
2023-01-28T21:01:35.807Z,100912.16
2023-01-28T21:04:08.508Z,100914.75
2023-01-28T21:06:40.128Z,100905.88
2023-01-28T21:09:09.118Z,100909.31
2023-01-28T21:11:37.534Z,100917.25
2023-01-28T21:14:06.435Z,100913.66
2023-01-28T21:16:35.696Z,100918.06
2023-01-28T21:19:05.754Z,100910.13
2023-01-28T21:21:34.256Z,100911.00
2023-01-28T21:24:03.328Z,100896.88
2023-01-28T21:26:32.068Z,100898.63
2023-01-28T21:29:00.569Z,100882.78
2023-01-28T21:31:29.126Z,100876.63
2023-01-28T21:34:01.338Z,100873.94
2023-01-28T21:36:34.057Z,100871.25
2023-01-28T21:39:03.797Z,100869.53
2023-01-28T21:41:32.865Z,100873.81
2023-01-28T21:44:01.680Z,100875.56
2023-01-28T21:46:32.527Z,100864.06
2023-01-28T21:49:02.825Z,100852.63
2023-01-28T21:51:40.635Z,100859.66
2023-01-28T21:54:12.018Z,100852.50
2023-01-28T21:56:40.833Z,100851.66
2023-01-28T21:59:27.057Z,100844.50
2023-01-28T22:01:56.124Z,100843.66
2023-01-28T22:04:25.478Z,100843.53
2023-01-28T22:06:58.955Z,100851.41
2023-01-28T22:09:27.836Z,100843.47
2023-01-28T22:11:57.001Z,100841.66
2023-01-28T22:14:25.500Z,100836.41
2023-01-28T22:16:54.305Z,100831.09
2023-01-28T22:19:23.307Z,100833.63
2023-01-28T22:21:51.861Z,100831.78
2023-01-28T22:24:24.563Z,100817.72
2023-01-28T22:26:54.851Z,100812.38
2023-01-28T22:29:24.769Z,100808.84
2023-01-28T22:31:54.731Z,100800.84
2023-01-28T22:34:23.622Z,100800.78
2023-01-28T22:36:53.051Z,100801.66
2023-01-28T22:39:23.087Z,100810.41
2023-01-28T22:41:51.634Z,100802.41
2023-01-28T22:44:21.151Z,100810.31
2023-01-28T22:46:50.067Z,100807.59
2023-01-28T22:49:18.595Z,100796.28
2023-01-28T22:51:47.188Z,100797.03
2023-01-28T22:54:16.055Z,100804.91
2023-01-28T22:56:46.481Z,100811.00
2023-01-28T22:59:14.945Z,100794.22
2023-01-28T23:01:43.645Z,100780.13
2023-01-28T23:04:12.425Z,100780.13
2023-01-28T23:06:40.947Z,100784.47
2023-01-28T23:09:09.465Z,100779.16
2023-01-28T23:11:37.956Z,100780.00
2023-01-28T23:14:25.024Z,100771.16
2023-01-28T23:17:11.195Z,100761.53
2023-01-28T23:20:11.783Z,100767.72
2023-01-28T23:22:57.720Z,100770.34
2023-01-28T23:25:26.378Z,100760.59
2023-01-28T23:27:54.885Z,100751.88
2023-01-28T23:30:25.686Z,100742.25
2023-01-28T23:32:58.085Z,100748.47
2023-01-28T23:35:27.424Z,100743.19
2023-01-28T23:37:56.493Z,100741.44
2023-01-28T23:40:27.368Z,100745.81
2023-01-28T23:42:56.615Z,100748.47
2023-01-28T23:45:26.979Z,100748.47
2023-01-28T23:47:55.754Z,100746.59
2023-01-28T23:50:24.728Z,100744.84
2023-01-28T23:52:53.249Z,100743.03
2023-01-28T23:55:21.796Z,100746.50
2023-01-28T23:57:50.488Z,100756.09
